Jurua, Brazil
Current Conditions -  °F | °C
As of 10:00 PM on Saturday 22 Nov 2014 (Local Time) from SKLT Reporting Station
Thunderstorm Thunderstorm  
Wind Chill: 77°   Ceiling: 1200
Heat Index: 78°   Visibility: 3mi
Dew Point: 77°   Wind: 12mph
Humidity: 100%   Direction: 120°ESE
Pressure: 29.85"   Gusts: NA
Location:  3.49°S, 66.07°W
Report Text: SKLT 230200Z 12010KT 5000 TSRA FEW010CB OVC012 25/25 A2985 RMK CB/E AD OPR IMC
Loading
Personal Weather Stations






























Interactive Weather Map New forecast layout! Learn more

10-Day Weather Forecast

Advertisements
Track Severe Weather on mobile